Almena, Wisconsin
Current Conditions -  °F | °C
As of 12:15 PM on Friday 28 Nov 2014 (Local Time) from KUBE Reporting Station
Light Snow Light Snow  
Wind Chill: -15°   Ceiling: 1500
Heat Index: -9°   Visibility: 4mi
Dew Point: -12°   Wind: 8mph
Humidity: 79%   Direction: 150°SSE
Pressure: 29.93"   Gusts: NA
Location:  45.42°N, 92.03°W
Report Text: KUBE 281815Z AUTO 15007KT 4SM -SN OVC015 M09/M12 A2993 RMK AO2
Loading
Personal Weather Stations






























Interactive Weather Map New forecast layout! Learn more

10-Day Weather Forecast

Advertisements
Track Severe Weather on mobile